首页
METAR-TAF:

METAR-TAF

机场 :

Skagway, 阿拉斯加州, 美国

纬度: 59-28N, 经度: 135-18W, 海拔: 16米

当前天气观测

该预报发布于28分钟前的16:53 UTC
风速6节,风向西转西南
温度 13°C
湿度 33%
气压 1015 hPa
能見度: 16.1公里
少量云层高于2000英尺
阴天层高于2900英尺

METAR: PAGY 241653Z AUTO 25006KT 10SM FEW020 OVC029 13/M03 A2996 RMK AO2 SLP145 T01281028 TSNO

时间: 09:21 (17:21 UTC)

预报

该预报发布于5小时和53分钟前的11:28 UTC
预报有效从24日的 12点(UTC)到 25日的 12点(UTC)
风速10节,风向西南
能見度: 10公里
阴天层高于3500英尺
从 24日的 1400点(UTC)
风速3节,风向多变
能見度: 10公里
阴天层高于2000英尺
从 24日的 2000点(UTC)
风速13节,风向南转西南
能見度: 10公里
阴天层高于3000英尺

TAF: PAGY 241128Z 2412/2512 23010KT P6SM OVC035 FM241400 VRB03KT P6SM OVC020 FM242000 21013KT P6SM OVC030 AMD NOT SKED

超过4000个机场的气象观测和天气预报(METAR&TAF报告)。

可查询的气象台以黄色和红色小点在地图上表示。

将鼠标移到小点上方,可查看气象台名称。

然后点击查看天气观测和预报。

如需切换地图:点击带黑十字的绿色按钮放大地图;点击带横线的绿色按钮缩小地图;或者点击绿色箭头查看邻近地区的地图。


METAR-TAF: